createdAt,value
2018-03-27T00:02:05.041Z,98382
2018-03-27T00:04:32.501Z,98385
2018-03-27T00:06:59.659Z,98381
2018-03-27T00:09:26.799Z,98379
2018-03-27T00:11:54.259Z,98382
2018-03-27T00:14:21.719Z,98377
2018-03-27T00:16:48.880Z,98378
2018-03-27T00:19:16.939Z,98388
2018-03-27T00:21:44.099Z,98385
2018-03-27T00:24:12.160Z,98379
2018-03-27T00:26:57.433Z,98385
2018-03-27T00:29:42.699Z,98380
2018-03-27T00:32:27.980Z,98381
2018-03-27T00:35:13.260Z,98386
2018-03-27T00:37:58.839Z,98374
2018-03-27T00:40:43.181Z,98379
2018-03-27T00:43:14.339Z,98368
2018-03-27T00:45:41.479Z,98368
2018-03-27T00:48:09.243Z,98366
2018-03-27T00:50:36.699Z,98369
2018-03-27T00:53:03.839Z,98375
2018-03-27T00:55:30.999Z,98373
2018-03-27T00:57:58.459Z,98380
2018-03-27T01:00:26.223Z,98369
2018-03-27T01:02:53.679Z,98363
2018-03-27T01:05:21.139Z,98375
2018-03-27T01:07:48.279Z,98376
2018-03-27T01:10:15.439Z,98377
2018-03-27T01:12:42.899Z,98378
2018-03-27T01:15:10.339Z,98375
2018-03-27T01:17:38.123Z,98377
2018-03-27T01:20:05.883Z,98373
2018-03-27T01:22:33.643Z,98370
2018-03-27T01:25:00.842Z,98369
2018-03-27T01:27:28.102Z,98370
2018-03-27T01:29:55.283Z,98357
2018-03-27T01:32:22.339Z,98365
2018-03-27T01:34:49.679Z,98363
2018-03-27T01:37:17.139Z,98371
2018-03-27T01:39:44.300Z,98363
2018-03-27T01:42:11.759Z,98366
2018-03-27T01:44:39.199Z,98363
2018-03-27T01:47:06.361Z,98363
2018-03-27T01:49:33.820Z,98371
2018-03-27T01:52:01.259Z,98368
2018-03-27T01:54:28.419Z,98370
2018-03-27T01:56:55.879Z,98372
2018-03-27T01:59:24.205Z,98373
2018-03-27T02:01:51.763Z,98377
2018-03-27T02:04:19.282Z,98371
2018-03-27T02:06:46.622Z,98373
2018-03-27T02:09:13.779Z,98370
2018-03-27T02:11:47.060Z,98372
2018-03-27T02:14:20.359Z,98378
2018-03-27T02:16:53.659Z,98374
2018-03-27T02:19:26.939Z,98379
2018-03-27T02:21:54.102Z,98378
2018-03-27T02:24:21.240Z,98372
2018-03-27T02:26:48.701Z,98380
2018-03-27T02:29:15.860Z,98379
2018-03-27T02:31:42.999Z,98378
2018-03-27T02:34:10.463Z,98370
2018-03-27T02:36:38.219Z,98368
2018-03-27T02:39:05.359Z,98370
2018-03-27T02:41:32.819Z,98363
2018-03-27T02:44:00.280Z,98363
2018-03-27T02:46:27.421Z,98362
2018-03-27T02:48:54.571Z,98358
2018-03-27T02:51:22.040Z,98359
2018-03-27T02:53:49.799Z,98364
2018-03-27T02:56:17.259Z,98367
2018-03-27T02:58:44.720Z,98364
2018-03-27T03:01:11.795Z,98369
2018-03-27T03:03:38.999Z,98372
2018-03-27T03:06:11.082Z,98373
2018-03-27T03:08:38.280Z,98370
2018-03-27T03:11:05.419Z,98354
2018-03-27T03:13:32.579Z,98366
2018-03-27T03:15:59.713Z,98367
2018-03-27T03:18:26.880Z,98380
2018-03-27T03:20:54.012Z,98370
2018-03-27T03:23:22.100Z,98376
2018-03-27T03:25:49.241Z,98373
2018-03-27T03:28:16.497Z,98377
2018-03-27T03:30:44.240Z,98381
2018-03-27T03:33:11.399Z,98370
2018-03-27T03:35:38.539Z,98368
2018-03-27T03:38:05.700Z,98372
2018-03-27T03:40:33.139Z,98365
2018-03-27T03:43:00.619Z,98373
2018-03-27T03:45:28.059Z,98370
2018-03-27T03:47:55.220Z,98371
2018-03-27T03:50:22.359Z,98375
2018-03-27T03:52:49.520Z,98375
2018-03-27T03:55:16.660Z,98383
2018-03-27T03:57:44.119Z,98381
2018-03-27T04:00:11.259Z,98387
2018-03-27T04:02:39.039Z,98379
2018-03-27T04:05:06.180Z,98377
2018-03-27T04:07:33.339Z,98382
2018-03-27T04:10:00.479Z,98378
2018-03-27T04:12:27.939Z,98383
2018-03-27T04:14:55.079Z,98390
2018-03-27T04:17:22.239Z,98385
2018-03-27T04:19:49.692Z,98387
2018-03-27T04:22:16.839Z,98392
2018-03-27T04:24:44.599Z,98382
2018-03-27T04:27:11.739Z,98396
2018-03-27T04:29:38.899Z,98389
2018-03-27T04:32:06.039Z,98394
2018-03-27T04:34:33.202Z,98392
2018-03-27T04:37:00.659Z,98383
2018-03-27T04:39:27.819Z,98395
2018-03-27T04:41:54.959Z,98396
2018-03-27T04:44:22.119Z,98398
2018-03-27T04:46:49.559Z,98393
2018-03-27T04:49:17.020Z,98395
2018-03-27T04:51:44.179Z,98392
2018-03-27T04:54:11.326Z,98392
2018-03-27T04:56:38.460Z,98402
2018-03-27T04:59:05.619Z,98402
2018-03-27T05:01:33.079Z,98410
2018-03-27T05:04:00.219Z,98401
2018-03-27T05:06:27.379Z,98395
2018-03-27T05:08:54.519Z,98401
2018-03-27T05:11:21.979Z,98399
2018-03-27T05:13:49.440Z,98410
2018-03-27T05:16:16.579Z,98412
2018-03-27T05:18:44.039Z,98414
2018-03-27T05:21:11.529Z,98417
2018-03-27T05:23:38.640Z,98412
2018-03-27T05:26:05.799Z,98402
2018-03-27T05:28:32.942Z,98407
2018-03-27T05:31:00.083Z,98404
2018-03-27T05:33:27.243Z,98411
2018-03-27T05:35:54.703Z,98411
2018-03-27T05:38:21.843Z,98419
2018-03-27T05:40:49.303Z,98408
2018-03-27T05:43:16.443Z,98406
2018-03-27T05:45:43.603Z,98415
2018-03-27T05:48:10.743Z,98418
2018-03-27T05:50:37.903Z,98421
2018-03-27T05:53:05.062Z,98417
2018-03-27T05:55:32.203Z,98420
2018-03-27T05:57:59.369Z,98414
2018-03-27T06:00:26.823Z,98419
2018-03-27T06:02:54.263Z,98418
2018-03-27T06:05:21.423Z,98419
2018-03-27T06:07:48.563Z,98425
2018-03-27T06:10:16.023Z,98423
2018-03-27T06:12:43.163Z,98434
2018-03-27T06:15:10.323Z,98433
2018-03-27T06:17:37.463Z,98436
2018-03-27T06:20:04.623Z,98433
2018-03-27T06:22:31.763Z,98437
2018-03-27T06:24:59.523Z,98438
2018-03-27T06:27:26.714Z,98435
2018-03-27T06:29:54.142Z,98433
2018-03-27T06:32:21.283Z,98432
2018-03-27T06:34:48.745Z,98437
2018-03-27T06:37:16.203Z,98435
2018-03-27T06:39:43.643Z,98435
2018-03-27T06:42:10.887Z,98439
2018-03-27T06:44:37.943Z,98436
2018-03-27T06:47:05.103Z,98440
2018-03-27T06:49:32.244Z,98437
2018-03-27T06:51:59.403Z,98436
2018-03-27T06:54:26.562Z,98435
2018-03-27T06:56:54.328Z,98430
2018-03-27T06:59:21.784Z,98435
2018-03-27T07:01:49.223Z,98437
2018-03-27T07:04:16.383Z,98436
2018-03-27T07:06:43.528Z,98438
2018-03-27T07:09:11.299Z,98443
2018-03-27T07:11:38.443Z,98445
2018-03-27T07:14:05.583Z,98442
2018-03-27T07:16:32.767Z,98438
2018-03-27T07:19:00.203Z,98437
2018-03-27T07:21:27.344Z,98434
2018-03-27T07:23:54.483Z,98442
2018-03-27T07:26:21.643Z,98438
2018-03-27T07:28:48.783Z,98442
2018-03-27T07:31:16.243Z,98439
2018-03-27T07:33:43.283Z,98442
2018-03-27T07:36:10.323Z,98437
2018-03-27T07:38:37.403Z,98448
2018-03-27T07:41:04.423Z,98444
2018-03-27T07:43:31.444Z,98446
2018-03-27T07:45:58.464Z,98451
2018-03-27T07:48:25.503Z,98442
2018-03-27T07:50:52.643Z,98447
2018-03-27T07:53:19.683Z,98447
2018-03-27T07:55:46.723Z,98445
2018-03-27T07:58:13.766Z,98444
2018-03-27T08:00:40.903Z,98448
2018-03-27T08:03:07.903Z,98444
2018-03-27T08:05:34.850Z,98449
2018-03-27T08:08:01.883Z,98444
2018-03-27T08:10:28.887Z,98444
2018-03-27T08:12:55.863Z,98442
2018-03-27T08:15:22.943Z,98442
2018-03-27T08:17:49.943Z,98439
2018-03-27T08:20:16.923Z,98435
2018-03-27T08:22:44.003Z,98434
2018-03-27T08:25:10.983Z,98433
2018-03-27T08:27:37.983Z,98437
2018-03-27T08:30:05.066Z,98434
2018-03-27T08:32:32.078Z,98439
2018-03-27T08:34:59.805Z,98441
2018-03-27T08:37:26.865Z,98428
2018-03-27T08:39:53.926Z,98437
2018-03-27T08:42:20.945Z,98432
2018-03-27T08:44:47.988Z,98429
2018-03-27T08:47:14.985Z,98432
2018-03-27T08:49:42.705Z,98435
2018-03-27T08:52:09.765Z,98429
2018-03-27T08:54:36.766Z,98430
2018-03-27T08:57:03.786Z,98427
2018-03-27T08:59:30.846Z,98426
2018-03-27T09:01:57.846Z,98431
2018-03-27T09:04:24.891Z,98437
2018-03-27T09:06:51.987Z,98436
2018-03-27T09:09:18.986Z,98431
2018-03-27T09:11:46.005Z,98426
2018-03-27T09:14:13.005Z,98431
2018-03-27T09:16:40.746Z,98427
2018-03-27T09:19:07.651Z,98427
2018-03-27T09:21:34.625Z,98423
2018-03-27T09:24:03.146Z,98425
2018-03-27T09:26:30.146Z,98426
2018-03-27T09:28:57.186Z,98424
2018-03-27T09:31:24.185Z,98426
2018-03-27T09:33:51.205Z,98418
2018-03-27T09:36:18.325Z,98416
2018-03-27T09:38:45.386Z,98416
2018-03-27T09:41:12.445Z,98416
2018-03-27T09:43:39.566Z,98416
2018-03-27T09:46:07.305Z,98412
2018-03-27T09:48:34.325Z,98416
2018-03-27T09:51:02.086Z,98423
2018-03-27T09:53:29.847Z,98412
2018-03-27T09:55:57.579Z,98421
2018-03-27T09:58:24.642Z,98428
2018-03-27T10:00:51.687Z,98419
2018-03-27T10:03:18.646Z,98425
2018-03-27T10:05:45.705Z,98420
2018-03-27T10:08:13.425Z,98422
2018-03-27T10:10:40.386Z,98416
2018-03-27T10:13:07.455Z,98415
2018-03-27T10:15:35.205Z,98417
2018-03-27T10:18:02.205Z,98417
2018-03-27T10:20:29.285Z,98421
2018-03-27T10:22:56.386Z,98426
2018-03-27T10:25:23.405Z,98431
2018-03-27T10:27:51.165Z,98428
2018-03-27T10:30:18.968Z,98433
2018-03-27T10:32:46.025Z,98420
2018-03-27T10:35:13.026Z,98431
2018-03-27T10:37:40.810Z,98437
2018-03-27T10:40:07.846Z,98431
2018-03-27T10:42:35.645Z,98436
2018-03-27T10:45:02.666Z,98440
2018-03-27T10:47:29.665Z,98441
2018-03-27T10:49:56.745Z,98434
2018-03-27T10:52:24.505Z,98439
2018-03-27T10:54:52.245Z,98442
2018-03-27T10:57:19.285Z,98432
2018-03-27T10:59:51.265Z,98436
2018-03-27T11:02:18.485Z,98443
2018-03-27T11:04:45.924Z,98435
2018-03-27T11:07:13.386Z,98437
2018-03-27T11:09:41.146Z,98430
2018-03-27T11:12:08.306Z,98430
2018-03-27T11:14:35.490Z,98419
2018-03-27T11:17:02.525Z,98429
2018-03-27T11:19:29.625Z,98424
2018-03-27T11:21:56.745Z,98418
2018-03-27T11:24:28.805Z,98418
2018-03-27T11:26:55.945Z,98426
2018-03-27T11:29:23.033Z,98428
2018-03-27T11:31:50.065Z,98423
2018-03-27T11:34:17.126Z,98416
2018-03-27T11:36:44.926Z,98412
2018-03-27T11:39:11.969Z,98409
2018-03-27T11:41:39.045Z,98408
2018-03-27T11:44:06.086Z,98407
2018-03-27T11:46:33.086Z,98403
2018-03-27T11:49:00.147Z,98393
2018-03-27T11:51:27.126Z,98386
2018-03-27T11:53:54.126Z,98402
2018-03-27T11:56:21.287Z,98395
2018-03-27T11:58:48.366Z,98390
2018-03-27T12:01:15.486Z,98389
2018-03-27T12:03:42.546Z,98392
2018-03-27T12:06:09.606Z,98389
2018-03-27T12:08:36.666Z,98384
2018-03-27T12:11:03.746Z,98382
2018-03-27T12:13:31.466Z,98378
2018-03-27T12:15:58.527Z,98380
2018-03-27T12:18:25.606Z,98378
2018-03-27T12:20:53.387Z,98366
2018-03-27T12:23:20.407Z,98367
2018-03-27T12:25:48.193Z,98366
2018-03-27T12:28:15.246Z,98361
2018-03-27T12:30:42.227Z,98351
2018-03-27T12:33:09.346Z,98360
2018-03-27T12:35:36.346Z,98351
2018-03-27T12:38:04.309Z,98345
2018-03-27T12:40:31.305Z,98343
2018-03-27T12:42:58.266Z,98343
2018-03-27T12:45:25.246Z,98348
2018-03-27T12:47:52.248Z,98340
2018-03-27T12:50:19.326Z,98339
2018-03-27T12:52:46.394Z,98344
2018-03-27T12:55:13.507Z,98341
2018-03-27T12:57:40.507Z,98336
2018-03-27T13:00:08.307Z,98332
2018-03-27T13:02:35.412Z,98340
2018-03-27T13:05:03.226Z,98336
2018-03-27T13:07:30.306Z,98335
2018-03-27T13:09:57.366Z,98336
2018-03-27T13:12:24.391Z,98331
2018-03-27T13:14:51.427Z,98330
2018-03-27T13:17:18.486Z,98323
2018-03-27T13:19:45.466Z,98325
2018-03-27T13:22:13.184Z,98319
2018-03-27T13:24:40.227Z,98320
2018-03-27T13:27:07.227Z,98319
2018-03-27T13:29:34.902Z,98308
2018-03-27T13:32:02.420Z,98307
2018-03-27T13:34:29.421Z,98307
2018-03-27T13:36:56.420Z,98303
2018-03-27T13:39:24.219Z,98295
2018-03-27T13:41:51.220Z,98292
2018-03-27T13:44:18.219Z,98292
2018-03-27T13:46:45.259Z,98286
2018-03-27T13:49:12.260Z,98282
2018-03-27T13:51:39.310Z,98287
2018-03-27T13:54:06.399Z,98280
2018-03-27T13:56:33.519Z,98275
2018-03-27T13:59:00.526Z,98278
2018-03-27T14:01:27.652Z,98286
2018-03-27T14:03:54.768Z,98290
2018-03-27T14:06:22.648Z,98283
2018-03-27T14:08:49.769Z,98281
2018-03-27T14:11:16.757Z,98283
2018-03-27T14:13:43.966Z,98289
2018-03-27T14:16:11.748Z,98284
2018-03-27T14:18:39.621Z,98284
2018-03-27T14:21:06.803Z,98279
2018-03-27T14:23:33.883Z,98284
2018-03-27T14:26:00.903Z,98292
2018-03-27T14:28:28.004Z,98291
2018-03-27T14:30:55.865Z,98284
2018-03-27T14:33:23.487Z,98287
2018-03-27T14:35:51.012Z,98285
2018-03-27T14:38:18.477Z,98283
2018-03-27T14:40:45.571Z,98278
2018-03-27T14:43:12.626Z,98271
2018-03-27T14:45:40.386Z,98270
2018-03-27T14:48:08.145Z,98282
2018-03-27T14:50:35.082Z,98270
2018-03-27T14:53:02.281Z,98279
2018-03-27T14:55:29.364Z,98285
2018-03-27T14:57:56.390Z,98275
2018-03-27T15:00:23.326Z,98281
2018-03-27T15:02:50.424Z,98287
2018-03-27T15:05:17.544Z,98298
2018-03-27T15:07:44.685Z,98301
2018-03-27T15:10:11.701Z,98296
2018-03-27T15:12:38.616Z,98294
2018-03-27T15:15:06.524Z,98290
2018-03-27T15:17:33.539Z,98288
2018-03-27T15:20:01.447Z,98287
2018-03-27T15:22:28.644Z,98286
2018-03-27T15:24:55.764Z,98293
2018-03-27T15:27:22.844Z,98299
2018-03-27T15:29:49.924Z,98294
2018-03-27T15:32:16.985Z,98293
2018-03-27T15:34:44.085Z,98293
2018-03-27T15:37:11.205Z,98298
2018-03-27T15:39:38.256Z,98295
2018-03-27T15:42:05.304Z,98292
2018-03-27T15:44:32.209Z,98292
2018-03-27T15:46:59.327Z,98291
2018-03-27T15:49:26.374Z,98275
2018-03-27T15:51:53.524Z,98273
2018-03-27T15:54:20.585Z,98284
2018-03-27T15:56:54.964Z,98271
2018-03-27T15:59:21.844Z,98278
2018-03-27T16:01:49.044Z,98271
2018-03-27T16:04:16.184Z,98265
2018-03-27T16:06:43.566Z,98269
2018-03-27T16:09:11.944Z,98268
2018-03-27T16:11:39.144Z,98270
2018-03-27T16:14:07.031Z,98275
2018-03-27T16:16:34.093Z,98271
2018-03-27T16:19:01.290Z,98283
2018-03-27T16:21:28.404Z,98274
2018-03-27T16:23:55.510Z,98271
2018-03-27T16:26:23.259Z,98270
2018-03-27T16:28:50.397Z,98274
2018-03-27T16:31:17.604Z,98280
2018-03-27T16:33:44.684Z,98268
2018-03-27T16:36:16.791Z,98285
2018-03-27T16:38:44.584Z,98282
2018-03-27T16:41:11.605Z,98274
2018-03-27T16:43:38.820Z,98275
2018-03-27T16:46:05.924Z,98274
2018-03-27T16:48:32.986Z,98273
2018-03-27T16:51:00.164Z,98274
2018-03-27T16:53:27.205Z,98270
2018-03-27T16:55:54.264Z,98271
2018-03-27T16:58:21.364Z,98273
2018-03-27T17:00:48.364Z,98271
2018-03-27T17:03:15.444Z,98271
2018-03-27T17:05:42.524Z,98274
2018-03-27T17:08:09.564Z,98280
2018-03-27T17:10:36.667Z,98281
2018-03-27T17:13:04.444Z,98287
2018-03-27T17:15:32.310Z,98284
2018-03-27T17:18:00.124Z,98283
2018-03-27T17:20:27.270Z,98278
2018-03-27T17:22:54.344Z,98284
2018-03-27T17:25:21.464Z,98290
2018-03-27T17:27:48.604Z,98292
2018-03-27T17:30:15.685Z,98287
2018-03-27T17:32:42.744Z,98293
2018-03-27T17:35:09.924Z,98289
2018-03-27T17:37:36.964Z,98279
2018-03-27T17:40:11.030Z,98280
2018-03-27T17:42:38.185Z,98272
2018-03-27T17:45:05.205Z,98268
2018-03-27T17:47:32.366Z,98261
2018-03-27T17:50:00.188Z,98261
2018-03-27T17:52:34.310Z,98264
2018-03-27T17:55:01.385Z,98255
2018-03-27T17:57:28.424Z,98267
2018-03-27T18:00:00.584Z,98258
2018-03-27T18:02:27.627Z,98258
2018-03-27T18:04:54.805Z,98257
2018-03-27T18:07:21.910Z,98265
2018-03-27T18:09:49.126Z,98266
2018-03-27T18:12:16.104Z,98256
2018-03-27T18:14:43.244Z,98272
2018-03-27T18:17:10.230Z,98263
2018-03-27T18:19:37.284Z,98268
2018-03-27T18:22:05.226Z,98270
2018-03-27T18:24:32.324Z,98279
2018-03-27T18:26:59.408Z,98273
2018-03-27T18:29:26.507Z,98283
2018-03-27T18:31:53.578Z,98270
2018-03-27T18:34:20.664Z,98274
2018-03-27T18:36:47.786Z,98289
2018-03-27T18:39:15.605Z,98286
2018-03-27T18:41:42.665Z,98286
2018-03-27T18:44:09.766Z,98291
2018-03-27T18:46:36.825Z,98293
2018-03-27T18:49:03.846Z,98302
2018-03-27T18:51:31.686Z,98303
2018-03-27T18:53:58.824Z,98303
2018-03-27T18:56:25.864Z,98301
2018-03-27T18:58:52.904Z,98313
2018-03-27T19:01:20.745Z,98300
2018-03-27T19:03:47.864Z,98299
2018-03-27T19:06:15.005Z,98296
2018-03-27T19:08:42.124Z,98298
2018-03-27T19:11:09.271Z,98295
2018-03-27T19:13:36.365Z,98297
2018-03-27T19:16:04.186Z,98297
2018-03-27T19:18:31.286Z,98292
2018-03-27T19:20:58.485Z,98282
2018-03-27T19:23:26.325Z,98283
2018-03-27T19:25:53.405Z,98268
2018-03-27T19:28:20.506Z,98267
2018-03-27T19:30:47.607Z,98261
2018-03-27T19:33:14.686Z,98251
2018-03-27T19:35:41.765Z,98264
2018-03-27T19:38:08.873Z,98255
2018-03-27T19:40:35.925Z,98254
2018-03-27T19:43:03.044Z,98252
2018-03-27T19:45:30.166Z,98261
2018-03-27T19:47:57.224Z,98260
2018-03-27T19:50:24.325Z,98268
2018-03-27T19:52:51.365Z,98263
2018-03-27T19:55:18.445Z,98261
2018-03-27T19:57:45.591Z,98258
2018-03-27T20:00:12.664Z,98258
2018-03-27T20:02:39.785Z,98256
2018-03-27T20:05:06.987Z,98253
2018-03-27T20:07:34.150Z,98252
2018-03-27T20:10:01.951Z,98252
2018-03-27T20:12:29.110Z,98251
2018-03-27T20:14:56.205Z,98246
2018-03-27T20:17:24.126Z,98246
2018-03-27T20:19:51.324Z,98234
2018-03-27T20:22:18.406Z,98245
2018-03-27T20:24:45.566Z,98241
2018-03-27T20:27:12.805Z,98234
2018-03-27T20:29:39.926Z,98241
2018-03-27T20:32:06.985Z,98231
2018-03-27T20:34:34.766Z,98225
2018-03-27T20:37:01.845Z,98222
2018-03-27T20:39:28.904Z,98227
2018-03-27T20:41:56.044Z,98232
2018-03-27T20:44:23.045Z,98221
2018-03-27T20:46:50.104Z,98220
2018-03-27T20:49:17.204Z,98223
2018-03-27T20:51:44.246Z,98217
2018-03-27T20:54:11.326Z,98217
2018-03-27T20:56:38.470Z,98212
2018-03-27T20:59:05.545Z,98202
2018-03-27T21:01:32.670Z,98211
2018-03-27T21:03:59.809Z,98203
2018-03-27T21:06:27.704Z,98211
2018-03-27T21:08:54.844Z,98212
2018-03-27T21:11:21.966Z,98208
2018-03-27T21:13:49.045Z,98211
2018-03-27T21:16:16.205Z,98207
2018-03-27T21:18:43.339Z,98198
2018-03-27T21:21:10.539Z,98198
2018-03-27T21:23:37.605Z,98198
2018-03-27T21:26:04.804Z,98193
2018-03-27T21:28:31.868Z,98192
2018-03-27T21:30:59.785Z,98188
2018-03-27T21:33:26.905Z,98187
2018-03-27T21:35:54.004Z,98195
2018-03-27T21:38:21.064Z,98196
2018-03-27T21:40:48.170Z,98190
2018-03-27T21:43:15.284Z,98195
2018-03-27T21:45:42.406Z,98185
2018-03-27T21:48:09.525Z,98172
2018-03-27T21:50:36.588Z,98179
2018-03-27T21:53:03.991Z,98176
2018-03-27T21:55:31.091Z,98178
2018-03-27T21:57:58.125Z,98175
2018-03-27T22:00:25.865Z,98176
2018-03-27T22:02:53.032Z,98179
2018-03-27T22:05:20.924Z,98190
2018-03-27T22:07:48.004Z,98179
2018-03-27T22:10:15.893Z,98177
2018-03-27T22:12:43.005Z,98175
2018-03-27T22:15:10.104Z,98175
2018-03-27T22:17:37.227Z,98167
2018-03-27T22:20:04.344Z,98174
2018-03-27T22:22:31.444Z,98173
2018-03-27T22:24:59.365Z,98164
2018-03-27T22:27:26.486Z,98156
2018-03-27T22:29:53.604Z,98155
2018-03-27T22:32:20.725Z,98149
2018-03-27T22:34:47.864Z,98146
2018-03-27T22:37:14.951Z,98152
2018-03-27T22:39:42.045Z,98156
2018-03-27T22:42:09.065Z,98152
2018-03-27T22:44:36.125Z,98135
2018-03-27T22:47:03.208Z,98140
2018-03-27T22:49:30.230Z,98138
2018-03-27T22:51:57.244Z,98132
2018-03-27T22:54:24.324Z,98143
2018-03-27T22:56:51.385Z,98138
2018-03-27T22:59:18.425Z,98136
2018-03-27T23:01:45.544Z,98130
2018-03-27T23:04:12.604Z,98127
2018-03-27T23:06:39.644Z,98133
2018-03-27T23:09:06.904Z,98138
2018-03-27T23:11:34.025Z,98142
2018-03-27T23:14:01.884Z,98148
2018-03-27T23:16:29.111Z,98141
2018-03-27T23:18:56.231Z,98133
2018-03-27T23:21:23.306Z,98135
2018-03-27T23:23:50.484Z,98137
2018-03-27T23:26:17.511Z,98136
2018-03-27T23:28:44.550Z,98136
2018-03-27T23:31:11.724Z,98127
2018-03-27T23:33:38.844Z,98131
2018-03-27T23:36:06.644Z,98123
2018-03-27T23:38:33.772Z,98123
2018-03-27T23:41:00.950Z,98121
2018-03-27T23:43:28.164Z,98120
2018-03-27T23:45:55.204Z,98111
2018-03-27T23:48:23.004Z,98120
2018-03-27T23:50:50.104Z,98120
2018-03-27T23:53:17.209Z,98121
2018-03-27T23:55:44.245Z,98117
2018-03-27T23:58:12.085Z,98118
